createdAt,value
2022-10-21T00:04:41.807Z,2.31
2022-10-21T00:09:43.652Z,2.26
2022-10-21T00:14:45.445Z,2.18
2022-10-21T00:19:47.310Z,2.07
2022-10-21T00:24:49.258Z,1.99
2022-10-21T00:29:50.979Z,2.05
2022-10-21T00:34:53.019Z,2.05
2022-10-21T00:39:55.103Z,1.88
2022-10-21T00:45:09.177Z,1.71
2022-10-21T00:50:32.648Z,1.61
2022-10-21T00:55:39.607Z,1.60
2022-10-21T01:00:41.481Z,1.56
2022-10-21T01:05:44.677Z,1.56
2022-10-21T01:10:47.730Z,1.55
2022-10-21T01:16:04.779Z,1.51
2022-10-21T01:21:15.680Z,1.48
2022-10-21T01:26:38.569Z,1.46
2022-10-21T01:31:50.757Z,1.43
2022-10-21T01:37:17.440Z,1.30
2022-10-21T01:42:35.144Z,1.10
2022-10-21T01:47:42.381Z,0.97
2022-10-21T01:53:03.448Z,0.82
2022-10-21T01:58:29.007Z,0.92
2022-10-21T02:03:35.085Z,0.73
2022-10-21T02:08:37.142Z,0.57
2022-10-21T02:13:51.578Z,0.49
2022-10-21T02:18:55.539Z,0.54
2022-10-21T02:24:02.976Z,0.60
2022-10-21T02:29:05.155Z,0.61
2022-10-21T02:34:30.174Z,0.44
2022-10-21T02:39:41.313Z,0.47
2022-10-21T02:44:43.066Z,0.57
2022-10-21T02:49:46.138Z,0.61
2022-10-21T02:54:48.093Z,0.72
2022-10-21T02:59:50.033Z,0.83
2022-10-21T03:04:51.939Z,1.00
2022-10-21T03:09:53.813Z,1.16
2022-10-21T03:14:55.593Z,1.25
2022-10-21T03:19:57.465Z,1.29
2022-10-21T03:24:59.401Z,1.30
2022-10-21T03:30:01.446Z,1.34
2022-10-21T03:35:17.505Z,1.30
2022-10-21T03:40:20.085Z,1.23
2022-10-21T03:45:21.820Z,1.17
2022-10-21T03:50:26.371Z,1.07
2022-10-21T03:55:28.996Z,1.07
2022-10-21T04:00:31.803Z,1.06
2022-10-21T04:05:34.349Z,1.10
2022-10-21T04:10:36.162Z,1.08
2022-10-21T04:15:38.146Z,1.02
2022-10-21T04:20:39.953Z,1.10
2022-10-21T04:25:44.674Z,1.18
2022-10-21T04:30:57.809Z,1.09
2022-10-21T04:35:59.750Z,1.05
2022-10-21T04:41:03.632Z,1.02
2022-10-21T04:46:12.025Z,1.02
2022-10-21T04:51:14.205Z,1.09
2022-10-21T04:56:16.202Z,0.96
2022-10-21T05:01:17.960Z,0.95
2022-10-21T05:06:40.422Z,0.81
2022-10-21T05:11:49.173Z,0.77
2022-10-21T05:16:50.955Z,0.80
2022-10-21T05:21:59.427Z,1.01
2022-10-21T05:27:07.838Z,1.10
2022-10-21T05:32:09.634Z,1.20
2022-10-21T05:37:11.365Z,1.47
2022-10-21T05:42:13.373Z,1.79
2022-10-21T05:47:15.542Z,2.08
2022-10-21T05:52:17.267Z,2.36
2022-10-21T05:57:19.049Z,2.57
2022-10-21T06:02:20.967Z,2.64
2022-10-21T06:07:22.992Z,2.74
2022-10-21T06:12:25.378Z,2.88
2022-10-21T06:17:37.965Z,2.93
2022-10-21T06:22:40.000Z,2.95
2022-10-21T06:27:41.961Z,3.03
2022-10-21T06:32:43.868Z,3.05
2022-10-21T06:37:45.813Z,3.13
2022-10-21T06:43:08.453Z,3.35
2022-10-21T06:48:23.885Z,3.67
2022-10-21T06:53:26.218Z,3.97
2022-10-21T06:58:28.103Z,4.39
2022-10-21T07:03:30.101Z,5.01
2022-10-21T07:08:46.537Z,5.57
2022-10-21T07:13:55.809Z,6.01
2022-10-21T07:18:58.361Z,6.41
2022-10-21T07:24:00.880Z,6.90
2022-10-21T07:29:03.137Z,7.35
2022-10-21T07:34:08.136Z,7.74
2022-10-21T07:39:14.189Z,8.11
2022-10-21T07:44:17.306Z,8.45
2022-10-21T07:49:20.743Z,8.76
2022-10-21T07:54:23.145Z,9.04
2022-10-21T07:59:25.127Z,9.31
2022-10-21T08:04:29.913Z,9.63
2022-10-21T08:09:31.939Z,9.92
2022-10-21T08:14:34.557Z,10.24
2022-10-21T08:19:36.633Z,10.57
2022-10-21T08:24:41.532Z,10.82
2022-10-21T08:29:44.480Z,11.12
2022-10-21T08:34:46.258Z,11.17
2022-10-21T08:39:48.236Z,11.08
2022-10-21T08:45:03.218Z,10.90
2022-10-21T08:50:13.684Z,10.76
2022-10-21T08:55:22.301Z,10.66
2022-10-21T09:00:31.143Z,10.51
2022-10-21T09:05:45.498Z,10.42
2022-10-21T09:11:19.988Z,10.35
2022-10-21T09:16:33.695Z,10.32
2022-10-21T09:21:40.518Z,10.36
2022-10-21T09:26:45.812Z,10.47
2022-10-21T09:31:54.344Z,10.72
2022-10-21T09:37:00.715Z,10.89
2022-10-21T09:42:29.226Z,11.03
2022-10-21T09:47:34.954Z,11.30
2022-10-21T09:52:38.458Z,11.52
2022-10-21T09:57:47.042Z,11.79
2022-10-21T10:02:49.808Z,12.10
2022-10-21T10:07:51.906Z,12.42
2022-10-21T10:13:01.681Z,12.55
2022-10-21T10:18:05.157Z,12.67
2022-10-21T10:23:09.929Z,12.68
2022-10-21T10:28:11.718Z,12.73
2022-10-21T10:33:22.050Z,12.88
2022-10-21T10:38:29.388Z,13.13
2022-10-21T10:43:32.068Z,13.33
2022-10-21T10:48:48.637Z,13.43
2022-10-21T10:54:01.639Z,13.40
2022-10-21T10:59:28.531Z,13.42
2022-10-21T11:05:04.238Z,13.65
2022-10-21T11:10:37.205Z,13.98
2022-10-21T11:15:57.228Z,14.40
2022-10-21T11:21:37.418Z,14.87
2022-10-21T11:26:52.565Z,15.15
2022-10-21T11:32:32.517Z,15.20
2022-10-21T11:38:06.611Z,14.91
2022-10-21T11:43:26.857Z,14.94
2022-10-21T11:48:31.804Z,15.21
2022-10-21T11:54:03.410Z,15.36
2022-10-21T11:59:35.358Z,15.44
2022-10-21T12:04:51.372Z,15.53
2022-10-21T12:10:10.163Z,15.86
2022-10-21T12:15:27.137Z,15.97
2022-10-21T12:20:29.262Z,15.80
2022-10-21T12:26:14.297Z,15.59
2022-10-21T12:31:45.495Z,15.66
2022-10-21T12:36:50.952Z,15.69
2022-10-21T12:42:14.486Z,15.63
2022-10-21T12:47:34.910Z,15.63
2022-10-21T12:52:40.332Z,15.58
2022-10-21T12:57:43.516Z,15.63
2022-10-21T13:03:05.640Z,15.51
2022-10-21T13:08:22.877Z,15.41
2022-10-21T13:13:38.919Z,15.29
2022-10-21T13:18:58.017Z,15.18
2022-10-21T13:24:25.494Z,15.22
2022-10-21T13:29:37.177Z,15.32
2022-10-21T13:34:43.223Z,15.41
2022-10-21T13:39:51.864Z,15.40
2022-10-21T13:45:29.559Z,15.38
2022-10-21T13:50:38.564Z,15.28
2022-10-21T13:55:40.405Z,15.06
2022-10-21T14:00:42.345Z,14.86
2022-10-21T14:05:55.265Z,14.65
2022-10-21T14:11:12.526Z,14.38
2022-10-21T14:16:22.411Z,14.27
2022-10-21T14:21:27.813Z,14.15
2022-10-21T14:26:34.673Z,13.98
2022-10-21T14:31:36.516Z,13.78
2022-10-21T14:37:00.872Z,13.60
2022-10-21T14:42:08.959Z,13.42
2022-10-21T14:47:24.018Z,13.28
2022-10-21T14:52:53.537Z,13.16
2022-10-21T14:58:07.799Z,13.02
2022-10-21T15:03:12.282Z,12.91
2022-10-21T15:08:20.400Z,12.81
2022-10-21T15:13:22.907Z,12.71
2022-10-21T15:18:28.990Z,12.60
2022-10-21T15:23:41.272Z,12.51
2022-10-21T15:28:43.312Z,12.44
2022-10-21T15:33:45.376Z,12.37
2022-10-21T15:38:48.835Z,12.33
2022-10-21T15:44:09.553Z,12.29
2022-10-21T15:49:34.572Z,12.23
2022-10-21T15:54:47.418Z,12.17
2022-10-21T15:59:49.385Z,12.14
2022-10-21T16:04:53.620Z,12.11
2022-10-21T16:09:56.717Z,12.06
2022-10-21T16:15:46.458Z,12.01
2022-10-21T16:20:48.917Z,11.98
2022-10-21T16:25:50.995Z,11.95
2022-10-21T16:30:53.795Z,11.93
2022-10-21T16:35:55.880Z,11.89
2022-10-21T16:41:21.614Z,11.83
2022-10-21T16:46:39.761Z,11.79
2022-10-21T16:51:46.258Z,11.78
2022-10-21T16:56:48.785Z,11.74
2022-10-21T17:02:06.517Z,11.70
2022-10-21T17:07:17.284Z,11.65
2022-10-21T17:12:19.266Z,11.60
2022-10-21T17:17:22.476Z,11.56
2022-10-21T17:22:24.601Z,11.52
2022-10-21T17:27:26.533Z,11.49
2022-10-21T17:32:29.831Z,11.44
2022-10-21T17:37:32.235Z,11.35
2022-10-21T17:42:34.270Z,11.27
2022-10-21T17:47:50.535Z,11.23
2022-10-21T17:52:54.544Z,11.25
2022-10-21T17:57:56.728Z,11.27
2022-10-21T18:02:59.099Z,11.28
2022-10-21T18:08:00.958Z,11.28
2022-10-21T18:13:04.423Z,11.24
2022-10-21T18:18:06.711Z,11.16
2022-10-21T18:23:08.490Z,11.11
2022-10-21T18:28:10.935Z,11.08
2022-10-21T18:33:12.841Z,11.08
2022-10-21T18:38:14.917Z,11.06
2022-10-21T18:43:17.323Z,11.04
2022-10-21T18:48:25.879Z,10.97
2022-10-21T18:53:27.720Z,10.83
2022-10-21T18:58:31.227Z,10.64
2022-10-21T19:03:33.451Z,10.46
2022-10-21T19:08:35.441Z,10.32
2022-10-21T19:13:37.445Z,10.23
2022-10-21T19:18:39.438Z,10.17
2022-10-21T19:23:41.367Z,10.12
2022-10-21T19:28:45.219Z,10.05
2022-10-21T19:33:47.499Z,9.96
2022-10-21T19:38:49.543Z,9.85
2022-10-21T19:43:54.718Z,9.74
2022-10-21T19:49:05.995Z,9.63
2022-10-21T19:54:11.973Z,9.54
2022-10-21T19:59:13.856Z,9.49
2022-10-21T20:04:16.317Z,9.46
2022-10-21T20:09:20.678Z,9.41
2022-10-21T20:14:22.557Z,9.36
2022-10-21T20:19:24.945Z,9.34
2022-10-21T20:24:26.925Z,9.35
2022-10-21T20:29:29.309Z,9.41
2022-10-21T20:34:34.198Z,9.48
2022-10-21T20:39:41.257Z,9.59
2022-10-21T20:44:43.242Z,9.69
2022-10-21T20:49:45.215Z,9.76
2022-10-21T20:54:47.608Z,9.83
2022-10-21T20:59:49.424Z,9.87
2022-10-21T21:04:51.362Z,9.91
2022-10-21T21:10:02.059Z,9.93
2022-10-21T21:15:09.403Z,9.92
2022-10-21T21:20:11.387Z,9.90
2022-10-21T21:25:13.353Z,9.93
2022-10-21T21:30:15.568Z,9.96
2022-10-21T21:35:17.571Z,10.03
2022-10-21T21:40:19.555Z,10.05
2022-10-21T21:45:28.442Z,10.06
2022-10-21T21:50:46.422Z,10.07
2022-10-21T21:55:48.463Z,10.04
2022-10-21T22:00:50.395Z,10.05
2022-10-21T22:05:52.282Z,10.03
2022-10-21T22:10:54.153Z,9.99
2022-10-21T22:15:55.850Z,9.96
2022-10-21T22:21:03.248Z,9.96
2022-10-21T22:26:07.035Z,9.98
2022-10-21T22:31:12.396Z,10.03
2022-10-21T22:36:16.809Z,10.06
2022-10-21T22:41:18.845Z,10.11
2022-10-21T22:46:33.388Z,10.11
2022-10-21T22:51:36.281Z,10.11
2022-10-21T22:56:38.501Z,10.13
2022-10-21T23:01:40.322Z,10.10
2022-10-21T23:06:42.151Z,10.04
2022-10-21T23:11:47.366Z,10.01
2022-10-21T23:16:53.271Z,10.01
2022-10-21T23:21:55.160Z,10.00
2022-10-21T23:26:59.152Z,9.99
2022-10-21T23:32:06.791Z,10.03
2022-10-21T23:37:08.842Z,10.05
2022-10-21T23:42:10.721Z,10.07
2022-10-21T23:47:12.742Z,10.13
2022-10-21T23:52:14.640Z,10.15
2022-10-21T23:57:16.464Z,10.12
